createdAt,value
2019-01-16T00:00:32.869Z,100834.59
2019-01-16T00:03:08.957Z,100840.54
2019-01-16T00:05:45.229Z,100838.91
2019-01-16T00:08:21.236Z,100830.87
2019-01-16T00:10:51.579Z,100829.96
2019-01-16T00:13:22.014Z,100826.11
2019-01-16T00:16:10.209Z,100830.28
2019-01-16T00:18:52.561Z,100828.23
2019-01-16T00:21:25.450Z,100828.56
2019-01-16T00:24:01.874Z,100815.36
2019-01-16T00:26:48.487Z,100817.48
2019-01-16T00:29:21.274Z,100807.28
2019-01-16T00:31:51.606Z,100813.13
2019-01-16T00:34:37.956Z,100810.06
2019-01-16T00:37:16.888Z,100807.89
2019-01-16T00:39:56.728Z,100803.66
2019-01-16T00:42:41.753Z,100801.08
2019-01-16T00:45:15.102Z,100795.95
2019-01-16T00:48:03.585Z,100787.06
2019-01-16T00:50:33.950Z,100794.23
2019-01-16T00:53:10.024Z,100788.33
2019-01-16T00:55:40.144Z,100784.06
2019-01-16T00:58:13.485Z,100793.78
2019-01-16T01:00:48.179Z,100793.78
2019-01-16T01:03:24.512Z,100794.64
2019-01-16T01:05:54.995Z,100790.78
2019-01-16T01:08:37.847Z,100785.70
2019-01-16T01:11:24.661Z,100792.47
2019-01-16T01:13:54.779Z,100778.08
2019-01-16T01:16:27.538Z,100785.70
2019-01-16T01:18:57.957Z,100665.27
2019-01-16T01:21:28.277Z,100782.66
2019-01-16T01:24:00.772Z,100777.99
2019-01-16T01:26:39.988Z,100779.72
2019-01-16T01:29:10.061Z,100780.98
2019-01-16T01:31:49.623Z,100770.00
2019-01-16T01:34:21.516Z,100780.98
2019-01-16T01:36:55.407Z,100771.23
2019-01-16T01:39:40.542Z,100773.77
2019-01-16T01:42:13.879Z,100776.36
2019-01-16T01:44:53.125Z,100782.26
2019-01-16T01:47:32.429Z,100786.39
2019-01-16T01:50:19.022Z,100785.00
2019-01-16T01:52:54.967Z,100787.91
2019-01-16T01:55:30.891Z,100787.86
2019-01-16T01:58:17.644Z,100778.47
2019-01-16T02:00:50.698Z,100780.97
2019-01-16T02:03:21.066Z,100785.23
2019-01-16T02:05:51.138Z,100773.75
2019-01-16T02:08:27.383Z,100776.70
2019-01-16T02:11:06.343Z,100772.07
2019-01-16T02:13:45.341Z,100770.80
2019-01-16T02:16:15.374Z,100767.85
2019-01-16T02:18:48.410Z,100767.85
2019-01-16T02:21:21.462Z,100746.22
2019-01-16T02:23:54.119Z,100753.02
2019-01-16T02:26:24.503Z,100754.29
2019-01-16T02:29:09.569Z,100754.33
2019-01-16T02:31:45.173Z,100761.09
2019-01-16T02:34:17.973Z,100758.10
2019-01-16T02:37:00.715Z,100755.97
2019-01-16T02:39:30.760Z,100761.18
2019-01-16T02:42:16.433Z,100759.09
2019-01-16T02:44:49.173Z,100754.96
2019-01-16T02:47:28.235Z,100747.34
2019-01-16T02:50:03.981Z,100743.94
2019-01-16T02:52:40.089Z,100740.25
2019-01-16T02:55:19.125Z,100736.44
2019-01-16T02:58:05.679Z,100742.78
2019-01-16T03:00:47.913Z,100743.23
2019-01-16T03:03:24.102Z,100733.84
2019-01-16T03:06:06.458Z,100727.42
2019-01-16T03:08:42.652Z,100732.17
2019-01-16T03:11:15.829Z,100727.42
2019-01-16T03:13:52.031Z,100718.53
2019-01-16T03:16:22.370Z,100327.93
2019-01-16T03:19:04.498Z,100719.76
2019-01-16T03:21:39.506Z,100710.78
2019-01-16T03:24:09.548Z,100714.95
2019-01-16T03:26:42.594Z,100706.48
2019-01-16T03:29:29.426Z,100712.45
2019-01-16T03:32:02.375Z,100707.38
2019-01-16T03:34:41.469Z,100695.00
2019-01-16T03:37:20.477Z,100701.76
2019-01-16T03:39:53.254Z,100691.15
2019-01-16T03:42:26.254Z,100691.10
2019-01-16T03:45:02.393Z,100689.80
2019-01-16T03:47:35.478Z,100688.07
2019-01-16T03:50:22.133Z,100687.25
2019-01-16T03:53:07.594Z,100684.71
2019-01-16T03:55:40.508Z,100676.23
2019-01-16T03:58:10.847Z,100683.80
2019-01-16T04:00:46.568Z,100671.40
2019-01-16T04:03:23.118Z,100674.34
2019-01-16T04:05:56.532Z,100661.69
2019-01-16T04:08:43.387Z,100663.38
2019-01-16T04:11:13.469Z,100663.73
2019-01-16T04:13:43.785Z,100660.75
2019-01-16T04:16:13.835Z,100652.72
2019-01-16T04:18:46.907Z,100643.38
2019-01-16T04:21:22.474Z,100644.69
2019-01-16T04:24:11.270Z,100636.62
2019-01-16T04:26:41.604Z,100628.22
2019-01-16T04:29:20.929Z,100629.12
2019-01-16T04:32:05.281Z,100618.30
2019-01-16T04:34:50.669Z,100615.84
2019-01-16T04:37:26.742Z,100613.38
2019-01-16T04:39:56.813Z,100601.88
2019-01-16T04:42:43.064Z,100610.72
2019-01-16T04:45:31.359Z,100594.70
2019-01-16T04:48:17.922Z,100591.30
2019-01-16T04:51:06.577Z,100591.38
2019-01-16T04:53:36.917Z,100588.88
2019-01-16T04:56:23.735Z,100588.47
2019-01-16T04:59:10.481Z,100585.40
2019-01-16T05:01:57.000Z,100581.06
2019-01-16T05:04:44.050Z,100583.27
2019-01-16T05:07:30.837Z,100583.27
2019-01-16T05:10:03.774Z,100579.42
2019-01-16T05:12:33.815Z,100576.88
2019-01-16T05:15:10.270Z,100571.39
2019-01-16T05:17:49.601Z,100572.58
2019-01-16T05:20:32.001Z,100567.09
2019-01-16T05:23:17.625Z,100567.13
2019-01-16T05:25:47.749Z,100565.45
2019-01-16T05:28:17.888Z,100551.84
2019-01-16T05:30:48.217Z,100554.39
2019-01-16T05:33:36.553Z,100551.84
2019-01-16T05:36:15.656Z,100551.03
2019-01-16T05:38:59.010Z,100550.50
2019-01-16T05:41:29.331Z,100549.64
2019-01-16T05:44:15.061Z,100542.02
2019-01-16T05:46:45.365Z,100540.75
2019-01-16T05:49:15.679Z,100540.38
2019-01-16T05:51:53.200Z,100537.47
2019-01-16T05:54:23.667Z,100531.53
2019-01-16T05:57:03.377Z,100534.06
2019-01-16T05:59:36.357Z,100531.90
2019-01-16T06:02:06.493Z,100526.86
2019-01-16T06:04:42.608Z,100523.95
2019-01-16T06:07:12.948Z,100522.27
2019-01-16T06:09:51.842Z,100532.42
2019-01-16T06:12:28.393Z,100524.84
2019-01-16T06:15:15.145Z,100525.29
2019-01-16T06:17:45.232Z,100522.38
2019-01-16T06:20:17.148Z,100519.35
2019-01-16T06:22:59.604Z,100512.14
2019-01-16T06:25:35.145Z,100511.69
2019-01-16T06:28:07.972Z,100521.93
2019-01-16T06:30:41.255Z,100520.73
2019-01-16T06:33:17.186Z,100515.66
2019-01-16T06:35:50.262Z,100516.06
2019-01-16T06:38:29.783Z,100519.47
2019-01-16T06:40:59.835Z,100514.80
2019-01-16T06:43:30.144Z,100514.38
2019-01-16T06:46:03.294Z,100510.65
2019-01-16T06:48:49.609Z,100520.02
2019-01-16T06:51:25.420Z,100506.94
2019-01-16T06:54:01.526Z,100518.79
2019-01-16T06:56:40.871Z,100515.80
2019-01-16T06:59:13.688Z,100518.79
2019-01-16T07:01:44.137Z,100511.13
2019-01-16T07:04:20.442Z,100510.27
2019-01-16T07:06:59.904Z,100514.56
2019-01-16T07:09:30.283Z,100507.21
2019-01-16T07:12:00.679Z,100501.23
2019-01-16T07:14:46.168Z,100502.95
2019-01-16T07:17:19.381Z,100502.98
2019-01-16T07:19:52.203Z,100497.95
2019-01-16T07:22:38.660Z,100502.16
2019-01-16T07:25:15.235Z,100507.31
2019-01-16T07:28:01.697Z,100497.45
2019-01-16T07:30:34.716Z,100506.31
2019-01-16T07:33:17.345Z,100510.57
2019-01-16T07:35:58.998Z,100503.25
2019-01-16T07:38:31.719Z,100496.53
2019-01-16T07:41:03.412Z,100490.17
2019-01-16T07:43:39.680Z,100497.31
2019-01-16T07:46:12.389Z,100502.50
2019-01-16T07:49:00.831Z,100497.72
2019-01-16T07:51:33.906Z,100501.53
2019-01-16T07:54:06.860Z,100510.42
2019-01-16T07:56:48.899Z,100507.95
2019-01-16T07:59:22.112Z,100509.23
2019-01-16T08:01:52.542Z,100502.31
2019-01-16T08:04:32.068Z,100497.23
2019-01-16T08:07:09.271Z,100503.59
2019-01-16T08:09:57.752Z,100503.95
2019-01-16T08:12:44.510Z,100503.66
2019-01-16T08:15:21.129Z,100512.92
2019-01-16T08:17:51.549Z,100510.80
2019-01-16T08:20:38.084Z,100513.70
2019-01-16T08:23:11.717Z,100515.88
2019-01-16T08:25:58.689Z,100512.96
2019-01-16T08:28:41.025Z,100511.77
2019-01-16T08:31:11.473Z,100500.71
2019-01-16T08:33:47.878Z,100503.17
2019-01-16T08:36:18.271Z,100509.60
2019-01-16T08:39:00.494Z,100510.42
2019-01-16T08:41:30.814Z,100505.75
2019-01-16T08:44:16.553Z,100521.77
2019-01-16T08:46:49.623Z,100510.72
2019-01-16T08:49:25.495Z,100508.63
2019-01-16T08:51:55.632Z,100508.55
2019-01-16T08:54:31.530Z,100495.03
2019-01-16T08:57:01.833Z,100497.50
2019-01-16T08:59:38.359Z,100491.93
2019-01-16T09:02:25.316Z,100489.39
2019-01-16T09:04:55.456Z,100490.29
2019-01-16T09:07:31.640Z,100485.58
2019-01-16T09:10:16.750Z,100495.73
2019-01-16T09:12:59.040Z,100486.85
2019-01-16T09:15:35.006Z,100488.57
2019-01-16T09:18:21.006Z,100488.53
2019-01-16T09:21:09.666Z,100488.57
2019-01-16T09:23:42.963Z,100489.43
2019-01-16T09:26:16.082Z,100483.53
2019-01-16T09:29:04.420Z,100482.26
2019-01-16T09:31:51.161Z,100477.96
2019-01-16T09:34:33.193Z,100480.95
2019-01-16T09:37:06.024Z,100486.44
2019-01-16T09:39:41.830Z,100474.97
2019-01-16T09:42:27.423Z,100475.42
2019-01-16T09:44:57.734Z,100469.89
2019-01-16T09:47:28.864Z,100471.98
2019-01-16T09:49:59.006Z,100469.89
2019-01-16T09:52:29.461Z,100465.27
2019-01-16T09:55:09.106Z,100460.14
2019-01-16T09:57:39.453Z,100450.33
2019-01-16T10:00:12.839Z,100447.75
2019-01-16T10:02:59.113Z,100434.60
2019-01-16T10:05:29.171Z,100451.07
2019-01-16T10:08:02.432Z,100443.45
2019-01-16T10:10:48.783Z,100440.87
2019-01-16T10:13:19.159Z,100441.73
2019-01-16T10:16:04.468Z,100434.49
2019-01-16T10:18:41.251Z,100431.44
2019-01-16T10:21:20.745Z,100428.52
2019-01-16T10:24:05.921Z,100424.30
2019-01-16T10:26:39.100Z,100421.76
2019-01-16T10:29:26.559Z,100406.11
2019-01-16T10:31:56.974Z,100428.52
2019-01-16T10:34:42.541Z,100436.52
2019-01-16T10:37:24.795Z,100425.50
2019-01-16T10:40:03.721Z,100414.17
2019-01-16T10:42:36.485Z,100411.27
2019-01-16T10:45:10.866Z,100407.91
2019-01-16T10:47:41.254Z,100413.02
2019-01-16T10:50:23.306Z,100406.70
2019-01-16T10:52:53.622Z,100406.74
2019-01-16T10:55:23.727Z,100397.89
2019-01-16T10:57:54.073Z,100390.75
2019-01-16T11:00:40.857Z,100395.42
2019-01-16T11:03:27.378Z,100389.89
2019-01-16T11:06:10.091Z,100383.17
2019-01-16T11:08:52.522Z,100385.27
2019-01-16T11:11:37.918Z,100365.80
2019-01-16T11:14:08.113Z,100360.31
2019-01-16T11:16:56.669Z,100362.85
2019-01-16T11:19:22.770Z,100350.16
2019-01-16T11:22:09.447Z,100345.48
2019-01-16T11:24:57.745Z,100332.31
2019-01-16T11:27:33.779Z,100333.64
2019-01-16T11:30:20.612Z,100335.73
2019-01-16T11:32:53.738Z,100320.95
2019-01-16T11:35:35.391Z,100319.33
2019-01-16T11:38:11.004Z,100314.16
2019-01-16T11:40:50.942Z,100310.79
2019-01-16T11:43:24.091Z,100307.39
2019-01-16T11:46:09.216Z,100304.82
2019-01-16T11:48:51.088Z,100303.96
2019-01-16T11:51:23.921Z,100297.13
2019-01-16T11:53:54.310Z,100298.37
2019-01-16T11:56:30.036Z,100289.48
2019-01-16T11:59:06.335Z,100291.16
2019-01-16T12:01:43.000Z,100284.75
2019-01-16T12:04:28.164Z,100281.80
2019-01-16T12:06:58.237Z,100278.81
2019-01-16T12:09:34.639Z,100276.23
2019-01-16T12:12:04.950Z,100279.60
2019-01-16T12:14:37.977Z,100268.17
2019-01-16T12:17:08.043Z,100264.78
2019-01-16T12:19:41.177Z,100265.19
2019-01-16T12:22:20.603Z,100249.95
2019-01-16T12:24:57.127Z,100246.15
2019-01-16T12:27:36.262Z,100244.02
2019-01-16T12:30:11.798Z,100236.84
2019-01-16T12:32:44.891Z,100244.47
2019-01-16T12:35:31.393Z,100234.79
2019-01-16T12:38:13.967Z,100225.02
2019-01-16T12:41:00.466Z,100228.88
2019-01-16T12:43:30.863Z,100220.00
2019-01-16T12:46:01.204Z,100208.54
2019-01-16T12:48:47.711Z,100200.06
2019-01-16T12:51:35.817Z,100198.35
2019-01-16T12:54:08.394Z,100186.89
2019-01-16T12:56:41.372Z,100180.07
2019-01-16T12:59:14.799Z,100175.50
2019-01-16T13:01:45.652Z,100167.44
2019-01-16T13:04:16.157Z,100153.47
2019-01-16T13:07:02.725Z,100163.66
2019-01-16T13:09:35.489Z,100153.09
2019-01-16T13:12:06.065Z,100153.92
2019-01-16T13:14:42.259Z,100151.38
2019-01-16T13:17:21.690Z,100149.70
2019-01-16T13:19:54.770Z,100140.84
2019-01-16T13:22:42.644Z,100131.16
2019-01-16T13:25:30.079Z,100125.72
2019-01-16T13:28:03.434Z,100124.02
2019-01-16T13:30:49.142Z,100117.66
2019-01-16T13:33:21.974Z,100112.58
2019-01-16T13:36:08.033Z,100113.86
2019-01-16T13:38:44.150Z,100103.25
2019-01-16T13:41:16.637Z,100109.98
2019-01-16T13:43:59.030Z,100103.23
2019-01-16T13:46:29.441Z,100103.64
2019-01-16T13:49:05.232Z,100093.04
2019-01-16T13:51:35.322Z,100081.56
2019-01-16T13:54:08.235Z,100079.46
2019-01-16T13:56:54.984Z,100076.48
2019-01-16T13:59:25.421Z,100076.06
2019-01-16T14:01:55.604Z,100065.88
2019-01-16T14:04:42.167Z,100055.28
2019-01-16T14:07:12.501Z,100046.40
2019-01-16T14:09:42.823Z,100041.77
2019-01-16T14:12:22.339Z,100043.91
2019-01-16T14:14:52.553Z,100040.11
2019-01-16T14:17:31.781Z,100031.22
2019-01-16T14:20:05.926Z,100035.47
2019-01-16T14:22:51.348Z,100025.31
2019-01-16T14:25:38.225Z,100012.20
2019-01-16T14:28:23.982Z,100007.20
2019-01-16T14:31:02.887Z,100007.64
2019-01-16T14:33:33.314Z,100005.94
2019-01-16T14:36:09.917Z,100005.05
2019-01-16T14:38:49.156Z,100009.72
2019-01-16T14:41:28.295Z,100017.31
2019-01-16T14:44:07.173Z,99999.92
2019-01-16T14:46:37.393Z,99999.48
2019-01-16T14:49:22.492Z,99993.16
2019-01-16T14:52:08.267Z,99978.34
2019-01-16T14:54:54.932Z,99987.23
2019-01-16T14:57:27.821Z,99985.52
2019-01-16T15:00:01.780Z,99985.49
2019-01-16T15:02:34.826Z,99977.87
2019-01-16T15:05:07.927Z,99973.21
2019-01-16T15:07:44.142Z,99970.26
2019-01-16T15:10:14.536Z,99959.25
2019-01-16T15:13:01.150Z,99960.12
2019-01-16T15:15:31.578Z,99960.98
2019-01-16T15:18:19.621Z,99952.52
2019-01-16T15:20:50.112Z,99952.48
2019-01-16T15:23:35.210Z,99951.66
2019-01-16T15:26:08.438Z,99942.31
2019-01-16T15:28:44.449Z,99950.78
2019-01-16T15:31:20.823Z,99935.88
2019-01-16T15:33:53.791Z,99939.30
2019-01-16T15:36:42.410Z,99941.84
2019-01-16T15:39:16.043Z,99938.94
2019-01-16T15:41:51.915Z,99936.81
2019-01-16T15:44:22.241Z,99933.80
2019-01-16T15:46:55.784Z,99928.70
2019-01-16T15:49:26.108Z,99929.09
2019-01-16T15:51:58.804Z,99917.61
2019-01-16T15:54:35.056Z,99915.49
2019-01-16T15:57:05.513Z,99911.25
2019-01-16T15:59:44.609Z,99902.75
2019-01-16T16:02:18.130Z,99893.87
2019-01-16T16:05:04.167Z,99888.77
2019-01-16T16:07:45.890Z,99881.56
2019-01-16T16:10:18.713Z,99872.66
2019-01-16T16:12:51.931Z,99873.52
2019-01-16T16:15:40.382Z,99871.36
2019-01-16T16:18:16.357Z,99870.52
2019-01-16T16:21:01.902Z,99862.84
2019-01-16T16:23:34.936Z,99857.30
2019-01-16T16:26:05.359Z,99846.27
2019-01-16T16:28:41.467Z,99854.69
2019-01-16T16:31:11.853Z,99847.91
2019-01-16T16:33:48.532Z,99838.17
2019-01-16T16:36:35.217Z,99830.53
2019-01-16T16:39:22.631Z,99825.87
2019-01-16T16:41:58.443Z,99826.31
2019-01-16T16:44:28.856Z,99828.41
2019-01-16T16:47:05.391Z,99828.41
2019-01-16T16:49:38.946Z,99822.06
2019-01-16T16:52:25.876Z,99819.52
2019-01-16T16:54:59.625Z,99824.19
2019-01-16T16:57:29.748Z,99828.41
2019-01-16T17:00:15.104Z,99825.87
2019-01-16T17:03:02.224Z,99815.28
2019-01-16T17:05:38.574Z,99809.80
2019-01-16T17:08:24.009Z,99812.75
2019-01-16T17:10:56.808Z,99808.94
2019-01-16T17:13:29.683Z,99806.40
2019-01-16T17:16:02.530Z,99803.03
2019-01-16T17:18:32.611Z,99815.72
2019-01-16T17:21:18.073Z,99814.86
2019-01-16T17:23:48.391Z,99813.11
2019-01-16T17:26:21.624Z,99815.59
2019-01-16T17:28:57.472Z,99807.10
2019-01-16T17:31:40.026Z,99805.38
2019-01-16T17:34:27.129Z,99797.73
2019-01-16T17:37:13.627Z,99788.80
2019-01-16T17:39:50.739Z,99790.86
2019-01-16T17:42:21.161Z,99792.95
2019-01-16T17:45:00.767Z,99793.37
2019-01-16T17:47:45.557Z,99789.98
2019-01-16T17:50:16.915Z,99782.73
2019-01-16T17:52:56.029Z,99786.12
2019-01-16T17:55:41.519Z,99785.66
2019-01-16T17:58:26.915Z,99790.28
2019-01-16T18:00:59.673Z,99786.04
2019-01-16T18:03:30.103Z,99778.88
2019-01-16T18:06:16.374Z,99778.44
2019-01-16T18:08:46.769Z,99773.80
2019-01-16T18:11:16.930Z,99780.14
2019-01-16T18:14:03.611Z,99790.72
2019-01-16T18:16:49.035Z,99781.38
2019-01-16T18:19:20.694Z,99782.65
2019-01-16T18:21:54.036Z,99778.83
2019-01-16T18:24:24.439Z,99781.36
2019-01-16T18:27:06.985Z,99771.63
2019-01-16T18:29:40.347Z,99770.80
2019-01-16T18:32:26.598Z,99778.44
2019-01-16T18:34:59.683Z,99783.95
2019-01-16T18:37:32.831Z,99773.80
2019-01-16T18:40:03.171Z,99772.53
2019-01-16T18:42:33.491Z,99775.48
2019-01-16T18:45:03.832Z,99781.36
2019-01-16T18:47:40.471Z,99786.02
2019-01-16T18:50:19.771Z,99778.83
2019-01-16T18:52:58.700Z,99783.89
2019-01-16T18:55:31.338Z,99787.26
2019-01-16T18:58:10.380Z,99774.60
2019-01-16T19:00:57.200Z,99764.48
2019-01-16T19:03:39.671Z,99764.51
2019-01-16T19:06:10.085Z,99772.64
2019-01-16T19:08:46.206Z,99764.22
2019-01-16T19:11:19.443Z,99772.69
2019-01-16T19:14:05.997Z,99781.59
2019-01-16T19:16:39.067Z,99782.91
2019-01-16T19:19:09.522Z,99780.07
2019-01-16T19:21:39.846Z,99768.78
2019-01-16T19:24:18.949Z,99757.75
2019-01-16T19:26:49.291Z,99757.31
2019-01-16T19:29:19.463Z,99739.95
2019-01-16T19:31:49.571Z,99749.70
2019-01-16T19:34:22.399Z,99726.89
2019-01-16T19:37:07.718Z,99738.70
2019-01-16T19:39:47.001Z,99747.58
2019-01-16T19:42:17.150Z,99745.89
2019-01-16T19:44:56.168Z,99739.95
2019-01-16T19:47:38.663Z,99732.33
2019-01-16T19:50:31.261Z,99731.94
2019-01-16T19:53:04.849Z,99720.45
2019-01-16T19:55:33.833Z,99714.10
2019-01-16T19:58:20.520Z,99720.13
2019-01-16T20:00:56.531Z,99713.37
2019-01-16T20:03:35.676Z,99712.54
2019-01-16T20:06:21.406Z,99700.22
2019-01-16T20:09:08.361Z,99695.48
2019-01-16T20:11:47.903Z,99693.34
2019-01-16T20:14:18.246Z,99687.46
2019-01-16T20:16:48.664Z,99694.22
2019-01-16T20:19:24.599Z,99694.66
2019-01-16T20:21:55.052Z,99684.05
2019-01-16T20:24:25.409Z,99688.69
2019-01-16T20:27:11.876Z,99686.59
2019-01-16T20:29:45.132Z,99673.91
2019-01-16T20:32:18.672Z,99666.70
2019-01-16T20:34:55.264Z,99672.20
2019-01-16T20:37:41.099Z,99666.73
2019-01-16T20:40:19.186Z,99653.61
2019-01-16T20:43:07.597Z,99661.22
2019-01-16T20:45:37.831Z,99667.56
2019-01-16T20:48:07.970Z,99663.75
2019-01-16T20:50:40.939Z,99651.07
2019-01-16T20:53:27.858Z,99656.14
2019-01-16T20:56:03.965Z,99651.07
2019-01-16T20:58:43.668Z,99657.41
2019-01-16T21:01:16.782Z,99656.16
2019-01-16T21:03:49.985Z,99654.88
2019-01-16T21:06:26.329Z,99654.05
2019-01-16T21:09:12.599Z,99630.77
2019-01-16T21:11:49.047Z,99632.50
2019-01-16T21:14:25.120Z,99632.97
2019-01-16T21:16:58.476Z,99649.05
2019-01-16T21:19:35.084Z,99652.41
2019-01-16T21:22:08.407Z,99649.45
2019-01-16T21:24:38.773Z,99649.05
2019-01-16T21:27:11.823Z,99650.73
2019-01-16T21:29:58.239Z,99643.53
2019-01-16T21:32:31.643Z,99641.00
2019-01-16T21:35:04.880Z,99641.43
2019-01-16T21:37:38.139Z,99632.50
2019-01-16T21:40:17.167Z,99628.31
2019-01-16T21:42:49.931Z,99624.89
2019-01-16T21:45:28.814Z,99629.58
2019-01-16T21:48:02.304Z,99627.91
2019-01-16T21:50:37.856Z,99627.91
2019-01-16T21:53:10.667Z,99612.70
2019-01-16T21:55:41.106Z,99615.66
2019-01-16T21:58:27.832Z,99612.69
2019-01-16T22:00:58.214Z,99609.72
2019-01-16T22:03:40.142Z,99603.79
2019-01-16T22:06:26.657Z,99601.27
2019-01-16T22:08:56.789Z,99600.00
2019-01-16T22:11:30.090Z,99610.59
2019-01-16T22:14:15.359Z,99602.99
2019-01-16T22:17:03.492Z,99605.11
2019-01-16T22:19:33.885Z,99600.45
2019-01-16T22:22:04.251Z,99594.97
2019-01-16T22:24:52.768Z,99594.97
2019-01-16T22:27:39.509Z,99599.27
2019-01-16T22:30:21.587Z,99604.30
2019-01-16T22:32:51.700Z,99603.45
2019-01-16T22:35:36.488Z,99592.43
2019-01-16T22:38:23.289Z,99592.03
2019-01-16T22:41:12.598Z,99592.47
2019-01-16T22:44:01.298Z,99597.53
2019-01-16T22:46:47.966Z,99596.70
2019-01-16T22:49:34.222Z,99586.97
2019-01-16T22:52:16.658Z,99594.63
2019-01-16T22:54:52.856Z,99581.06
2019-01-16T22:57:29.239Z,99586.55
2019-01-16T23:00:02.072Z,99577.71
2019-01-16T23:02:44.697Z,99584.09
2019-01-16T23:05:14.788Z,99560.83
2019-01-16T23:07:57.394Z,99573.57
2019-01-16T23:10:43.681Z,99568.08
2019-01-16T23:13:23.244Z,99564.72
2019-01-16T23:15:53.547Z,99563.52
2019-01-16T23:18:35.591Z,99560.58
2019-01-16T23:21:14.809Z,99556.36
2019-01-16T23:23:50.994Z,99557.61
2019-01-16T23:26:33.452Z,99558.02
2019-01-16T23:29:10.080Z,99554.60
2019-01-16T23:31:52.589Z,99555.05
2019-01-16T23:34:24.220Z,99549.98
2019-01-16T23:37:09.815Z,99555.44
2019-01-16T23:39:54.795Z,99556.27
2019-01-16T23:42:39.954Z,99556.23
2019-01-16T23:45:27.657Z,99553.27
2019-01-16T23:48:13.898Z,99556.58
2019-01-16T23:50:47.234Z,99553.15
2019-01-16T23:53:29.861Z,99558.21
2019-01-16T23:56:02.790Z,99559.04
2019-01-16T23:58:50.210Z,99550.18
